createdAt,value
2019-03-03T00:00:28.482Z,1000.89
2019-03-03T00:01:28.108Z,1000.77
2019-03-03T00:02:28.079Z,1000.83
2019-03-03T00:03:28.063Z,1000.88
2019-03-03T00:04:28.056Z,1000.87
2019-03-03T00:05:28.485Z,1000.81
2019-03-03T00:06:28.080Z,1000.81
2019-03-03T00:07:28.024Z,1000.86
2019-03-03T00:08:28.018Z,1000.82
2019-03-03T00:09:28.010Z,1000.84
2019-03-03T00:10:46.520Z,1000.79
2019-03-03T00:11:28.011Z,1000.90
2019-03-03T00:12:27.967Z,1000.81
2019-03-03T00:13:27.954Z,1000.81
2019-03-03T00:14:27.947Z,1000.85
2019-03-03T00:15:27.995Z,1000.85
2019-03-03T00:16:27.956Z,1000.85
2019-03-03T00:17:27.923Z,1000.82
2019-03-03T00:18:27.913Z,1000.84
2019-03-03T00:19:27.998Z,1000.80
2019-03-03T00:20:28.004Z,1000.95
2019-03-03T00:21:27.932Z,1000.93
2019-03-03T00:22:27.927Z,1000.87
2019-03-03T00:23:27.884Z,1000.78
2019-03-03T00:24:27.935Z,1000.78
2019-03-03T00:25:27.836Z,1000.83
2019-03-03T00:26:31.479Z,1000.77
2019-03-03T00:27:27.814Z,1000.82
2019-03-03T00:28:28.013Z,1000.74
2019-03-03T00:29:27.859Z,1000.78
2019-03-03T00:30:27.791Z,1000.73
2019-03-03T00:31:27.780Z,1000.71
2019-03-03T00:32:27.765Z,1000.74
2019-03-03T00:33:28.002Z,1000.77
2019-03-03T00:34:27.766Z,1000.75
2019-03-03T00:35:27.719Z,1000.78
2019-03-03T00:36:27.709Z,1000.82
2019-03-03T00:37:27.740Z,1000.83
2019-03-03T00:38:28.027Z,1000.79
2019-03-03T00:39:27.681Z,1000.82
2019-03-03T00:40:27.662Z,1000.75
2019-03-03T00:41:27.657Z,1000.76
2019-03-03T00:42:27.658Z,1000.78
2019-03-03T00:43:27.997Z,1000.74
2019-03-03T00:44:27.627Z,1000.75
2019-03-03T00:45:27.636Z,1000.77
2019-03-03T00:46:27.598Z,1000.74
2019-03-03T00:47:27.585Z,1000.80
2019-03-03T00:48:28.005Z,1000.75
2019-03-03T00:49:27.596Z,1000.68
2019-03-03T00:50:27.594Z,1000.76
2019-03-03T00:51:27.547Z,1000.70
2019-03-03T00:52:27.552Z,1000.68
2019-03-03T00:53:27.553Z,1000.73
2019-03-03T00:54:27.556Z,1000.71
2019-03-03T00:55:27.511Z,1000.69
2019-03-03T00:56:27.500Z,1000.71
2019-03-03T00:57:27.523Z,1000.75
2019-03-03T00:58:27.482Z,1000.72
2019-03-03T00:59:27.504Z,1000.72
2019-03-03T01:00:27.507Z,1000.68
2019-03-03T01:01:27.427Z,1000.62
2019-03-03T01:02:27.417Z,1000.64
2019-03-03T01:03:27.431Z,1000.64
2019-03-03T01:04:27.409Z,1000.55
2019-03-03T01:05:27.396Z,1000.52
2019-03-03T01:06:27.396Z,1000.62
2019-03-03T01:07:27.395Z,1000.58
2019-03-03T01:08:27.396Z,1000.58
2019-03-03T01:09:32.499Z,1000.56
2019-03-03T01:10:27.405Z,1000.52
2019-03-03T01:11:27.482Z,1000.50
2019-03-03T01:12:27.323Z,1000.55
2019-03-03T01:13:27.316Z,1000.56
2019-03-03T01:14:27.298Z,1000.41
2019-03-03T01:15:27.507Z,1000.43
2019-03-03T01:16:27.525Z,1000.54
2019-03-03T01:17:27.267Z,1000.46
2019-03-03T01:18:27.500Z,1000.53
2019-03-03T01:19:27.235Z,1000.49
2019-03-03T01:20:27.231Z,1000.48
2019-03-03T01:21:27.249Z,1000.55
2019-03-03T01:22:27.200Z,1000.52
2019-03-03T01:23:27.516Z,1000.53
2019-03-03T01:24:27.193Z,1000.42
2019-03-03T01:25:27.176Z,1000.39
2019-03-03T01:26:27.170Z,1000.42
2019-03-03T01:27:27.172Z,1000.43
2019-03-03T01:28:27.500Z,1000.47
2019-03-03T01:29:27.132Z,1000.36
2019-03-03T01:30:27.118Z,1000.30
2019-03-03T01:31:27.101Z,1000.27
2019-03-03T01:32:27.096Z,1000.27
2019-03-03T01:33:27.501Z,1000.25
2019-03-03T01:34:27.068Z,1000.27
2019-03-03T01:35:27.063Z,1000.24
2019-03-03T01:36:27.050Z,1000.27
2019-03-03T01:37:27.500Z,1000.28
2019-03-03T01:38:27.499Z,1000.22
2019-03-03T01:39:27.031Z,1000.23
2019-03-03T01:40:27.007Z,1000.16
2019-03-03T01:41:26.994Z,1000.20
2019-03-03T01:42:26.983Z,1000.17
2019-03-03T01:43:29.765Z,1000.13
2019-03-03T01:44:26.965Z,1000.20
2019-03-03T01:45:26.960Z,1000.15
2019-03-03T01:46:26.948Z,1000.03
2019-03-03T01:47:26.926Z,1000.07
2019-03-03T01:48:27.004Z,999.98
2019-03-03T01:49:27.023Z,1000.07
2019-03-03T01:50:26.896Z,1000.05
2019-03-03T01:51:26.901Z,999.96
2019-03-03T01:52:26.873Z,999.92
2019-03-03T01:53:26.858Z,1000.04
2019-03-03T01:54:27.030Z,999.93
2019-03-03T01:55:26.856Z,999.90
2019-03-03T01:56:26.839Z,999.98
2019-03-03T01:57:26.835Z,999.92
2019-03-03T01:58:26.820Z,1000.02
2019-03-03T01:59:27.030Z,999.93
2019-03-03T02:00:27.014Z,999.97
2019-03-03T02:01:26.780Z,999.93
2019-03-03T02:02:26.758Z,999.88
2019-03-03T02:03:26.756Z,999.84
2019-03-03T02:04:26.754Z,999.83
2019-03-03T02:05:27.007Z,999.82
2019-03-03T02:06:26.721Z,999.79
2019-03-03T02:07:26.708Z,999.74
2019-03-03T02:08:26.697Z,999.69
2019-03-03T02:09:26.689Z,999.66
2019-03-03T02:10:32.019Z,999.63
2019-03-03T02:11:26.661Z,999.61
2019-03-03T02:12:26.661Z,999.64
2019-03-03T02:13:26.642Z,999.68
2019-03-03T02:14:26.639Z,999.58
2019-03-03T02:15:27.016Z,999.53
2019-03-03T02:16:26.627Z,999.45
2019-03-03T02:17:26.595Z,999.45
2019-03-03T02:18:26.586Z,999.42
2019-03-03T02:19:26.574Z,999.42
2019-03-03T02:20:27.007Z,999.44
2019-03-03T02:21:27.011Z,999.33
2019-03-03T02:22:27.029Z,999.39
2019-03-03T02:23:26.534Z,999.44
2019-03-03T02:24:26.519Z,999.34
2019-03-03T02:25:26.510Z,999.35
2019-03-03T02:26:27.001Z,999.27
2019-03-03T02:27:26.510Z,999.29
2019-03-03T02:28:26.485Z,999.26
2019-03-03T02:29:26.477Z,999.23
2019-03-03T02:30:26.454Z,999.18
2019-03-03T02:31:26.517Z,999.19
2019-03-03T02:32:26.442Z,999.22
2019-03-03T02:33:26.485Z,999.23
2019-03-03T02:34:26.426Z,999.18
2019-03-03T02:35:26.404Z,999.11
2019-03-03T02:36:26.506Z,999.12
2019-03-03T02:37:26.523Z,999.18
2019-03-03T02:38:26.387Z,999.20
2019-03-03T02:39:26.381Z,999.21
2019-03-03T02:40:26.369Z,999.21
2019-03-03T02:41:26.516Z,999.13
2019-03-03T02:42:26.340Z,999.21
2019-03-03T02:43:26.313Z,999.16
2019-03-03T02:44:26.322Z,999.16
2019-03-03T02:45:26.300Z,999.11
2019-03-03T02:46:26.555Z,998.99
2019-03-03T02:47:26.278Z,998.93
2019-03-03T02:48:26.269Z,998.97
2019-03-03T02:49:26.264Z,999.00
2019-03-03T02:50:26.247Z,998.99
2019-03-03T02:51:26.237Z,998.98
2019-03-03T02:52:26.522Z,998.94
2019-03-03T02:53:26.206Z,999.02
2019-03-03T02:54:26.509Z,998.93
2019-03-03T02:55:26.186Z,998.97
2019-03-03T02:56:26.174Z,998.93
2019-03-03T02:57:26.173Z,998.96
2019-03-03T02:58:26.156Z,998.94
2019-03-03T02:59:30.060Z,998.95
2019-03-03T03:00:26.508Z,998.97
2019-03-03T03:01:26.532Z,999.06
2019-03-03T03:02:26.120Z,998.96
2019-03-03T03:03:26.107Z,998.91
2019-03-03T03:04:26.613Z,998.82
2019-03-03T03:05:26.088Z,998.88
2019-03-03T03:06:26.064Z,998.78
2019-03-03T03:07:26.055Z,998.72
2019-03-03T03:08:26.050Z,998.76
2019-03-03T03:09:31.522Z,998.75
2019-03-03T03:10:26.021Z,998.71
2019-03-03T03:11:26.012Z,998.67
2019-03-03T03:12:26.024Z,998.68
2019-03-03T03:13:25.986Z,998.65
2019-03-03T03:14:25.976Z,998.68
2019-03-03T03:15:25.975Z,998.73
2019-03-03T03:16:25.953Z,998.77
2019-03-03T03:17:26.027Z,998.69
2019-03-03T03:18:25.930Z,998.70
2019-03-03T03:19:25.918Z,998.66
2019-03-03T03:20:25.910Z,998.71
2019-03-03T03:21:25.905Z,998.86
2019-03-03T03:22:26.026Z,998.73
2019-03-03T03:23:25.875Z,998.83
2019-03-03T03:24:25.863Z,998.72
2019-03-03T03:25:25.858Z,998.78
2019-03-03T03:26:25.844Z,998.75
2019-03-03T03:27:26.037Z,998.79
2019-03-03T03:28:25.829Z,998.75
2019-03-03T03:29:25.829Z,998.75
2019-03-03T03:30:29.672Z,998.76
2019-03-03T03:31:25.807Z,998.81
2019-03-03T03:32:25.781Z,998.76
2019-03-03T03:33:25.788Z,998.64
2019-03-03T03:34:25.774Z,998.62
2019-03-03T03:35:25.750Z,998.69
2019-03-03T03:36:26.014Z,998.66
2019-03-03T03:37:25.727Z,998.64
2019-03-03T03:38:25.737Z,998.65
2019-03-03T03:39:25.706Z,998.64
2019-03-03T03:40:25.689Z,998.57
2019-03-03T03:41:26.013Z,998.61
2019-03-03T03:42:25.669Z,998.60
2019-03-03T03:43:26.027Z,998.59
2019-03-03T03:44:25.649Z,998.59
2019-03-03T03:45:25.658Z,998.53
2019-03-03T03:46:25.633Z,998.56
2019-03-03T03:47:25.617Z,998.53
2019-03-03T03:48:25.607Z,998.46
2019-03-03T03:49:26.019Z,998.52
2019-03-03T03:50:25.580Z,998.44
2019-03-03T03:51:25.600Z,998.50
2019-03-03T03:52:25.559Z,998.53
2019-03-03T03:53:26.018Z,998.58
2019-03-03T03:54:25.541Z,998.54
2019-03-03T03:55:25.531Z,998.52
2019-03-03T03:56:25.525Z,998.62
2019-03-03T03:57:25.511Z,998.50
2019-03-03T03:58:25.511Z,998.59
2019-03-03T03:59:25.502Z,998.51
2019-03-03T04:00:28.612Z,998.57
2019-03-03T04:01:25.462Z,998.55
2019-03-03T04:02:25.471Z,998.56
2019-03-03T04:03:25.443Z,998.55
2019-03-03T04:04:25.428Z,998.57
2019-03-03T04:05:25.515Z,998.52
2019-03-03T04:06:25.518Z,998.53
2019-03-03T04:07:25.418Z,998.50
2019-03-03T04:08:25.387Z,998.53
2019-03-03T04:09:25.391Z,998.48
2019-03-03T04:10:30.535Z,998.48
2019-03-03T04:11:25.360Z,998.52
2019-03-03T04:12:25.357Z,998.49
2019-03-03T04:13:25.344Z,998.55
2019-03-03T04:14:25.329Z,998.54
2019-03-03T04:15:25.326Z,998.54
2019-03-03T04:16:25.517Z,998.52
2019-03-03T04:17:25.287Z,998.51
2019-03-03T04:18:25.295Z,998.53
2019-03-03T04:19:25.317Z,998.49
2019-03-03T04:20:25.253Z,998.54
2019-03-03T04:21:25.250Z,998.50
2019-03-03T04:22:25.234Z,998.51
2019-03-03T04:23:25.221Z,998.60
2019-03-03T04:24:25.221Z,998.53
2019-03-03T04:25:25.526Z,998.47
2019-03-03T04:26:25.184Z,998.49
2019-03-03T04:27:25.174Z,998.46
2019-03-03T04:28:25.167Z,998.45
2019-03-03T04:29:25.157Z,998.45
2019-03-03T04:30:29.233Z,998.42
2019-03-03T04:31:29.051Z,998.41
2019-03-03T04:32:25.128Z,998.45
2019-03-03T04:33:25.121Z,998.43
2019-03-03T04:34:25.114Z,998.45
2019-03-03T04:35:25.101Z,998.45
2019-03-03T04:36:25.542Z,998.47
2019-03-03T04:37:25.078Z,998.48
2019-03-03T04:38:25.053Z,998.45
2019-03-03T04:39:25.050Z,998.40
2019-03-03T04:40:25.036Z,998.34
2019-03-03T04:41:25.536Z,998.38
2019-03-03T04:42:25.025Z,998.51
2019-03-03T04:43:25.001Z,998.36
2019-03-03T04:44:24.990Z,998.33
2019-03-03T04:45:25.519Z,998.27
2019-03-03T04:46:25.030Z,998.31
2019-03-03T04:47:25.041Z,998.34
2019-03-03T04:48:24.947Z,998.26
2019-03-03T04:49:24.937Z,998.28
2019-03-03T04:50:24.925Z,998.20
2019-03-03T04:51:24.914Z,998.33
2019-03-03T04:52:24.915Z,998.26
2019-03-03T04:53:24.914Z,998.33
2019-03-03T04:54:24.883Z,998.29
2019-03-03T04:55:24.878Z,998.26
2019-03-03T04:56:24.855Z,998.25
2019-03-03T04:57:24.851Z,998.24
2019-03-03T04:58:25.039Z,998.18
2019-03-03T04:59:24.826Z,998.22
2019-03-03T05:00:24.827Z,998.27
2019-03-03T05:01:24.803Z,998.14
2019-03-03T05:02:24.791Z,998.19
2019-03-03T05:03:25.030Z,998.09
2019-03-03T05:04:24.771Z,998.09
2019-03-03T05:05:24.761Z,998.01
2019-03-03T05:06:24.763Z,998.03
2019-03-03T05:07:24.739Z,998.01
2019-03-03T05:08:24.732Z,997.96
2019-03-03T05:09:30.044Z,997.97
2019-03-03T05:10:24.718Z,997.94
2019-03-03T05:11:24.717Z,997.86
2019-03-03T05:12:24.692Z,997.86
2019-03-03T05:13:24.681Z,997.85
2019-03-03T05:14:25.050Z,997.88
2019-03-03T05:15:24.658Z,997.89
2019-03-03T05:16:24.650Z,997.89
2019-03-03T05:17:24.642Z,997.77
2019-03-03T05:18:24.629Z,997.84
2019-03-03T05:19:25.030Z,997.80
2019-03-03T05:20:25.026Z,997.86
2019-03-03T05:21:24.582Z,997.83
2019-03-03T05:22:25.529Z,997.83
2019-03-03T05:23:24.571Z,997.84
2019-03-03T05:24:33.706Z,997.80
2019-03-03T05:25:26.026Z,997.86
2019-03-03T05:26:24.527Z,997.82
2019-03-03T05:27:24.519Z,997.85
2019-03-03T05:28:24.516Z,997.93
2019-03-03T05:29:24.496Z,997.83
2019-03-03T05:30:24.558Z,997.79
2019-03-03T05:31:24.486Z,997.87
2019-03-03T05:32:24.472Z,997.77
2019-03-03T05:33:24.461Z,997.83
2019-03-03T05:34:24.457Z,997.85
2019-03-03T05:35:24.448Z,997.81
2019-03-03T05:36:24.541Z,997.81
2019-03-03T05:37:24.413Z,997.72
2019-03-03T05:38:24.396Z,997.77
2019-03-03T05:39:24.394Z,997.76
2019-03-03T05:40:24.394Z,997.83
2019-03-03T05:41:24.534Z,997.72
2019-03-03T05:42:24.357Z,997.81
2019-03-03T05:43:24.344Z,997.73
2019-03-03T05:44:24.341Z,997.72
2019-03-03T05:45:24.320Z,997.68
2019-03-03T05:46:24.549Z,997.64
2019-03-03T05:47:24.301Z,997.63
2019-03-03T05:48:24.550Z,997.65
2019-03-03T05:49:24.277Z,997.67
2019-03-03T05:50:24.273Z,997.64
2019-03-03T05:51:24.256Z,997.54
2019-03-03T05:52:24.255Z,997.61
2019-03-03T05:53:24.237Z,997.64
2019-03-03T05:54:24.542Z,997.61
2019-03-03T05:55:24.213Z,997.61
2019-03-03T05:56:24.203Z,997.63
2019-03-03T05:57:24.212Z,997.63
2019-03-03T05:58:24.562Z,997.60
2019-03-03T05:59:24.179Z,997.59
2019-03-03T06:00:24.174Z,997.59
2019-03-03T06:01:24.158Z,997.57
2019-03-03T06:02:24.537Z,997.51
2019-03-03T06:03:24.125Z,997.60
2019-03-03T06:04:24.550Z,997.55
2019-03-03T06:05:24.106Z,997.58
2019-03-03T06:06:24.089Z,997.59
2019-03-03T06:07:24.080Z,997.51
2019-03-03T06:08:29.571Z,997.65
2019-03-03T06:09:24.062Z,997.61
2019-03-03T06:10:24.543Z,997.61
2019-03-03T06:11:24.034Z,997.54
2019-03-03T06:12:24.024Z,997.46
2019-03-03T06:13:24.048Z,997.57
2019-03-03T06:14:24.018Z,997.52
2019-03-03T06:15:24.072Z,997.55
2019-03-03T06:16:23.990Z,997.55
2019-03-03T06:17:23.969Z,997.57
2019-03-03T06:18:23.962Z,997.55
2019-03-03T06:19:23.951Z,997.56
2019-03-03T06:20:23.948Z,997.53
2019-03-03T06:21:24.044Z,997.53
2019-03-03T06:22:23.914Z,997.49
2019-03-03T06:23:23.909Z,997.51
2019-03-03T06:24:23.904Z,997.49
2019-03-03T06:25:23.895Z,997.49
2019-03-03T06:26:23.892Z,997.44
2019-03-03T06:27:23.867Z,997.49
2019-03-03T06:28:24.049Z,997.52
2019-03-03T06:29:23.849Z,997.54
2019-03-03T06:30:23.838Z,997.46
2019-03-03T06:31:23.814Z,997.49
2019-03-03T06:32:23.824Z,997.56
2019-03-03T06:33:24.052Z,997.51
2019-03-03T06:34:23.791Z,997.48
2019-03-03T06:35:24.054Z,997.53
2019-03-03T06:36:23.767Z,997.52
2019-03-03T06:37:23.754Z,997.54
2019-03-03T06:38:23.760Z,997.54
2019-03-03T06:39:23.735Z,997.62
2019-03-03T06:40:23.725Z,997.51
2019-03-03T06:41:24.053Z,997.57
2019-03-03T06:42:23.699Z,997.52
2019-03-03T06:43:23.689Z,997.47
2019-03-03T06:44:23.690Z,997.56
2019-03-03T06:45:23.664Z,997.57
2019-03-03T06:46:24.072Z,997.49
2019-03-03T06:47:23.654Z,997.52
2019-03-03T06:48:23.639Z,997.53
2019-03-03T06:49:23.632Z,997.53
2019-03-03T06:50:23.644Z,997.53
2019-03-03T06:51:23.607Z,997.47
2019-03-03T06:52:24.061Z,997.48
2019-03-03T06:53:23.580Z,997.58
2019-03-03T06:54:23.574Z,997.52
2019-03-03T06:55:23.578Z,997.48
2019-03-03T06:56:23.568Z,997.50
2019-03-03T06:57:23.547Z,997.55
2019-03-03T06:58:23.528Z,997.48
2019-03-03T06:59:23.513Z,997.48
2019-03-03T07:00:23.504Z,997.50
2019-03-03T07:01:23.564Z,997.51
2019-03-03T07:02:23.495Z,997.46
2019-03-03T07:03:23.567Z,997.55
2019-03-03T07:04:23.460Z,997.56
2019-03-03T07:05:23.457Z,997.50
2019-03-03T07:06:23.440Z,997.43
2019-03-03T07:07:28.565Z,997.50
2019-03-03T07:08:23.414Z,997.48
2019-03-03T07:09:23.404Z,997.58
2019-03-03T07:10:23.392Z,997.55
2019-03-03T07:11:23.380Z,997.52
2019-03-03T07:12:23.553Z,997.48
2019-03-03T07:13:23.372Z,997.57
2019-03-03T07:14:23.350Z,997.54
2019-03-03T07:15:23.577Z,997.45
2019-03-03T07:16:23.337Z,997.51
2019-03-03T07:17:23.325Z,997.51
2019-03-03T07:18:23.566Z,997.52
2019-03-03T07:19:23.313Z,997.53
2019-03-03T07:20:23.286Z,997.58
2019-03-03T07:21:23.275Z,997.54
2019-03-03T07:22:23.262Z,997.50
2019-03-03T07:23:23.279Z,997.53
2019-03-03T07:24:23.242Z,997.48
2019-03-03T07:25:23.246Z,997.58
2019-03-03T07:26:23.216Z,997.52
2019-03-03T07:27:23.213Z,997.55
2019-03-03T07:28:23.558Z,997.62
2019-03-03T07:29:23.568Z,997.57
2019-03-03T07:30:23.171Z,997.54
2019-03-03T07:31:23.166Z,997.60
2019-03-03T07:32:23.168Z,997.49
2019-03-03T07:33:23.144Z,997.44
2019-03-03T07:34:23.130Z,997.56
2019-03-03T07:35:26.500Z,997.48
2019-03-03T07:36:23.113Z,997.46
2019-03-03T07:37:23.111Z,997.45
2019-03-03T07:38:23.571Z,997.46
2019-03-03T07:39:23.574Z,997.44
2019-03-03T07:40:23.082Z,997.51
2019-03-03T07:41:23.064Z,997.47
2019-03-03T07:42:23.054Z,997.61
2019-03-03T07:43:23.041Z,997.54
2019-03-03T07:44:23.074Z,997.47
2019-03-03T07:45:23.011Z,997.53
2019-03-03T07:46:22.995Z,997.46
2019-03-03T07:47:23.008Z,997.54
2019-03-03T07:48:22.984Z,997.49
2019-03-03T07:49:23.063Z,997.46
2019-03-03T07:50:22.963Z,997.60
2019-03-03T07:51:22.958Z,997.46
2019-03-03T07:52:22.942Z,997.46
2019-03-03T07:53:22.939Z,997.53
2019-03-03T07:54:22.915Z,997.49
2019-03-03T07:55:22.903Z,997.56
2019-03-03T07:56:23.093Z,997.44
2019-03-03T07:57:22.897Z,997.42
2019-03-03T07:58:22.895Z,997.40
2019-03-03T07:59:23.066Z,997.49
2019-03-03T08:00:22.848Z,997.42
2019-03-03T08:01:22.836Z,997.47
2019-03-03T08:02:22.825Z,997.52
2019-03-03T08:03:23.087Z,997.51
2019-03-03T08:04:27.411Z,997.53
2019-03-03T08:05:22.786Z,997.44
2019-03-03T08:06:22.778Z,997.56
2019-03-03T08:07:22.810Z,997.52
2019-03-03T08:08:22.757Z,997.49
2019-03-03T08:09:33.579Z,997.51
2019-03-03T08:10:22.739Z,997.57
2019-03-03T08:11:22.727Z,997.49
2019-03-03T08:12:22.726Z,997.54
2019-03-03T08:13:22.705Z,997.55
2019-03-03T08:14:23.066Z,997.57
2019-03-03T08:15:22.683Z,997.59
2019-03-03T08:16:22.671Z,997.61
2019-03-03T08:17:22.680Z,997.51
2019-03-03T08:18:22.651Z,997.52
2019-03-03T08:19:26.329Z,997.53
2019-03-03T08:20:22.627Z,997.56
2019-03-03T08:21:22.617Z,997.62
2019-03-03T08:22:22.604Z,997.56
2019-03-03T08:23:23.099Z,997.58
2019-03-03T08:24:22.578Z,997.66
2019-03-03T08:25:22.569Z,997.56
2019-03-03T08:26:22.566Z,997.56
2019-03-03T08:27:22.552Z,997.52
2019-03-03T08:28:22.559Z,997.53
2019-03-03T08:29:22.586Z,997.57
2019-03-03T08:30:22.515Z,997.58
2019-03-03T08:31:22.507Z,997.58
2019-03-03T08:32:22.504Z,997.55
2019-03-03T08:33:22.483Z,997.56
2019-03-03T08:34:22.583Z,997.49
2019-03-03T08:35:22.463Z,997.55
2019-03-03T08:36:22.491Z,997.59
2019-03-03T08:37:22.442Z,997.59
2019-03-03T08:38:22.436Z,997.48
2019-03-03T08:39:22.590Z,997.50
2019-03-03T08:40:22.602Z,997.50
2019-03-03T08:41:22.397Z,997.50
2019-03-03T08:42:22.396Z,997.56
2019-03-03T08:43:22.376Z,997.51
2019-03-03T08:44:22.374Z,997.44
2019-03-03T08:45:22.588Z,997.49
2019-03-03T08:46:22.350Z,997.48
2019-03-03T08:47:22.332Z,997.53
2019-03-03T08:48:22.319Z,997.48
2019-03-03T08:49:22.307Z,997.53
2019-03-03T08:50:26.003Z,997.51
2019-03-03T08:51:22.292Z,997.50
2019-03-03T08:52:22.296Z,997.47
2019-03-03T08:53:22.567Z,997.46
2019-03-03T08:54:22.250Z,997.50
2019-03-03T08:55:22.240Z,997.46
2019-03-03T08:56:22.234Z,997.56
2019-03-03T08:57:22.221Z,997.51
2019-03-03T08:58:22.600Z,997.54
2019-03-03T08:59:22.200Z,997.43
2019-03-03T09:00:22.190Z,997.43
2019-03-03T09:01:22.185Z,997.50
2019-03-03T09:02:22.163Z,997.49
2019-03-03T09:03:22.584Z,997.37
2019-03-03T09:04:22.189Z,997.55
2019-03-03T09:05:26.823Z,997.48
2019-03-03T09:06:22.134Z,997.48
2019-03-03T09:07:22.117Z,997.48
2019-03-03T09:08:22.113Z,997.50
2019-03-03T09:09:22.089Z,997.48
2019-03-03T09:10:27.617Z,997.41
2019-03-03T09:11:22.087Z,997.56
2019-03-03T09:12:22.067Z,997.49
2019-03-03T09:13:22.058Z,997.50
2019-03-03T09:14:22.047Z,997.48
2019-03-03T09:15:22.044Z,997.46
2019-03-03T09:16:22.090Z,997.53
2019-03-03T09:17:22.015Z,997.48
2019-03-03T09:18:22.007Z,997.49
2019-03-03T09:19:21.989Z,997.43
2019-03-03T09:20:25.893Z,997.45
2019-03-03T09:21:26.634Z,997.52
2019-03-03T09:22:21.942Z,997.56
2019-03-03T09:23:21.934Z,997.47
2019-03-03T09:24:21.928Z,997.43
2019-03-03T09:25:21.912Z,997.48
2019-03-03T09:26:21.923Z,997.44
2019-03-03T09:27:21.916Z,997.54
2019-03-03T09:28:22.093Z,997.47
2019-03-03T09:29:21.885Z,997.47
2019-03-03T09:30:21.864Z,997.50
2019-03-03T09:31:21.858Z,997.42
2019-03-03T09:32:21.839Z,997.37
2019-03-03T09:33:22.083Z,997.48
2019-03-03T09:34:21.829Z,997.49
2019-03-03T09:35:22.083Z,997.44
2019-03-03T09:36:21.790Z,997.38
2019-03-03T09:37:21.781Z,997.40
2019-03-03T09:38:21.775Z,997.38
2019-03-03T09:39:22.585Z,997.43
2019-03-03T09:40:21.768Z,997.38
2019-03-03T09:41:22.074Z,997.37
2019-03-03T09:42:21.729Z,997.41
2019-03-03T09:43:21.715Z,997.44
2019-03-03T09:44:21.708Z,997.35
2019-03-03T09:45:21.694Z,997.36
2019-03-03T09:46:22.087Z,997.41
2019-03-03T09:47:22.090Z,997.42
2019-03-03T09:48:21.668Z,997.32
2019-03-03T09:49:21.651Z,997.35
2019-03-03T09:50:21.643Z,997.38
2019-03-03T09:51:25.478Z,997.32
2019-03-03T09:52:21.629Z,997.44
2019-03-03T09:53:21.641Z,997.40
2019-03-03T09:54:21.607Z,997.37
2019-03-03T09:55:22.104Z,997.41
2019-03-03T09:56:22.074Z,997.44
2019-03-03T09:57:21.566Z,997.35
2019-03-03T09:58:21.557Z,997.37
2019-03-03T09:59:21.555Z,997.44
2019-03-03T10:00:21.551Z,997.41
2019-03-03T10:01:21.518Z,997.39
2019-03-03T10:02:21.605Z,997.44
2019-03-03T10:03:21.525Z,997.34
2019-03-03T10:04:21.515Z,997.34
2019-03-03T10:05:21.504Z,997.37
2019-03-03T10:06:24.541Z,997.41
2019-03-03T10:07:21.464Z,997.38
2019-03-03T10:08:21.453Z,997.39
2019-03-03T10:09:21.453Z,997.41
2019-03-03T10:10:21.445Z,997.36
2019-03-03T10:11:26.587Z,997.36
2019-03-03T10:12:21.582Z,997.36
2019-03-03T10:13:21.400Z,997.40
2019-03-03T10:14:21.400Z,997.37
2019-03-03T10:15:21.367Z,997.33
2019-03-03T10:16:21.368Z,997.37
2019-03-03T10:17:21.581Z,997.27
2019-03-03T10:18:21.583Z,997.35
2019-03-03T10:19:21.327Z,997.36
2019-03-03T10:20:21.309Z,997.34
2019-03-03T10:21:21.306Z,997.31
2019-03-03T10:22:25.031Z,997.36
2019-03-03T10:23:21.596Z,997.37
2019-03-03T10:24:21.264Z,997.32
2019-03-03T10:25:21.262Z,997.36
2019-03-03T10:26:21.255Z,997.39
2019-03-03T10:27:21.242Z,997.47
2019-03-03T10:28:21.249Z,997.31
2019-03-03T10:29:21.623Z,997.27
2019-03-03T10:30:21.231Z,997.37
2019-03-03T10:31:21.204Z,997.36
2019-03-03T10:32:21.199Z,997.37
2019-03-03T10:33:21.181Z,997.41
2019-03-03T10:34:21.599Z,997.40
2019-03-03T10:35:21.144Z,997.38
2019-03-03T10:36:21.171Z,997.44
2019-03-03T10:37:21.122Z,997.34
2019-03-03T10:38:21.115Z,997.32
2019-03-03T10:39:21.616Z,997.23
2019-03-03T10:40:21.103Z,997.24
2019-03-03T10:41:21.093Z,997.30
2019-03-03T10:42:21.092Z,997.37
2019-03-03T10:43:21.064Z,997.27
2019-03-03T10:44:21.105Z,997.29
2019-03-03T10:45:21.042Z,997.20
2019-03-03T10:46:21.024Z,997.25
2019-03-03T10:47:21.016Z,997.32
2019-03-03T10:48:21.015Z,997.29
2019-03-03T10:49:21.205Z,997.25
2019-03-03T10:50:20.986Z,997.29
2019-03-03T10:51:20.979Z,997.35
2019-03-03T10:52:20.972Z,997.35
2019-03-03T10:53:20.959Z,997.28
2019-03-03T10:54:21.124Z,997.30
2019-03-03T10:55:20.935Z,997.32
2019-03-03T10:56:20.918Z,997.35
2019-03-03T10:57:20.904Z,997.19
2019-03-03T10:58:20.905Z,997.28
2019-03-03T10:59:21.088Z,997.29
2019-03-03T11:00:20.895Z,997.24
2019-03-03T11:01:21.114Z,997.35
2019-03-03T11:02:20.875Z,997.25
2019-03-03T11:03:20.856Z,997.28
2019-03-03T11:04:20.845Z,997.25
2019-03-03T11:05:21.097Z,997.22
2019-03-03T11:06:20.818Z,997.24
2019-03-03T11:07:20.807Z,997.22
2019-03-03T11:08:47.108Z,997.29
2019-03-03T11:09:20.783Z,997.25
2019-03-03T11:10:21.091Z,997.34
2019-03-03T11:11:20.752Z,997.28
2019-03-03T11:12:20.770Z,997.27
2019-03-03T11:13:21.110Z,997.23
2019-03-03T11:14:20.738Z,997.21
2019-03-03T11:15:20.731Z,997.16
2019-03-03T11:16:20.718Z,997.19
2019-03-03T11:17:20.711Z,997.21
2019-03-03T11:18:21.101Z,997.30
2019-03-03T11:19:20.682Z,997.27
2019-03-03T11:20:20.657Z,997.34
2019-03-03T11:21:20.654Z,997.22
2019-03-03T11:22:20.636Z,997.12
2019-03-03T11:23:28.616Z,997.25
2019-03-03T11:24:20.631Z,997.28
2019-03-03T11:25:20.664Z,997.24
2019-03-03T11:26:20.597Z,997.30
2019-03-03T11:27:20.645Z,997.25
2019-03-03T11:28:23.766Z,997.22
2019-03-03T11:29:20.555Z,997.26
2019-03-03T11:30:20.551Z,997.25
2019-03-03T11:31:20.534Z,997.11
2019-03-03T11:32:20.605Z,997.07
2019-03-03T11:33:20.512Z,997.15
2019-03-03T11:34:20.501Z,997.06
2019-03-03T11:35:20.665Z,997.04
2019-03-03T11:36:20.509Z,997.13
2019-03-03T11:37:20.502Z,997.01
2019-03-03T11:38:20.465Z,997.04
2019-03-03T11:39:20.456Z,997.04
2019-03-03T11:40:20.651Z,997.00
2019-03-03T11:41:20.443Z,996.99
2019-03-03T11:42:22.484Z,997.08
2019-03-03T11:43:20.425Z,996.91
2019-03-03T11:44:20.440Z,996.99
2019-03-03T11:45:20.618Z,996.99
2019-03-03T11:46:20.379Z,996.95
2019-03-03T11:47:20.374Z,996.84
2019-03-03T11:48:20.358Z,996.86
2019-03-03T11:49:20.335Z,996.79
2019-03-03T11:50:20.613Z,996.79
2019-03-03T11:51:20.318Z,996.75
2019-03-03T11:52:20.305Z,996.75
2019-03-03T11:53:20.299Z,996.82
2019-03-03T11:54:20.330Z,996.75
2019-03-03T11:55:20.620Z,996.75
2019-03-03T11:56:20.619Z,996.83
2019-03-03T11:57:21.804Z,996.74
2019-03-03T11:58:20.237Z,996.80
2019-03-03T11:59:20.243Z,996.78
2019-03-03T12:00:20.598Z,996.78
2019-03-03T12:01:20.216Z,996.76
2019-03-03T12:02:20.245Z,996.85
2019-03-03T12:03:20.184Z,996.74
2019-03-03T12:04:20.175Z,996.81
2019-03-03T12:05:20.614Z,996.75
2019-03-03T12:06:20.612Z,996.75
2019-03-03T12:07:20.159Z,996.66
2019-03-03T12:08:21.084Z,996.73
2019-03-03T12:09:20.121Z,996.73
2019-03-03T12:10:20.106Z,996.60
2019-03-03T12:11:30.604Z,996.63
2019-03-03T12:12:20.098Z,996.64
2019-03-03T12:13:20.081Z,996.61
2019-03-03T12:14:20.065Z,996.60
2019-03-03T12:15:20.056Z,996.64
2019-03-03T12:16:20.111Z,996.67
2019-03-03T12:17:20.051Z,996.59
2019-03-03T12:18:20.052Z,996.62
2019-03-03T12:19:20.190Z,996.54
2019-03-03T12:20:20.016Z,996.65
2019-03-03T12:21:19.998Z,996.52
2019-03-03T12:22:19.995Z,996.53
2019-03-03T12:23:19.965Z,996.51
2019-03-03T12:24:19.974Z,996.55
2019-03-03T12:25:21.712Z,996.59